Time;durP1;ratioP1;P1;durP2;ratioP2;P2;SDS_P1;SDS_P2;PMS_P1;PMS_P2;Temp;Humidity;BMP_temperature;BMP_pressure;BME280_temperature;BME280_humidity;BME280_pressure;Samples;Min_cycle;Max_cycle;Signal;HPM_P1;HPM_P2
2023/03/18 08:37:13;;;;;;;13.37;6.77;;;13.20;90.90;;;;;;21236753;27;20585;-74
2023/03/18 08:47:15;;;;;;;12.03;6.87;;;12.90;90.10;;;;;;21219819;27;20205;-75
2023/03/18 08:57:17;;;;;;;10.83;6.33;;;13.00;89.70;;;;;;21149756;28;20249;-72
2023/03/18 09:07:19;;;;;;;14.03;6.00;;;13.20;89.30;;;;;;21148096;28;20199;-72
2023/03/18 09:17:22;;;;;;;9.67;5.03;;;13.40;88.40;;;;;;21149376;28;20727;-76
2023/03/18 09:27:39;;;;;;;17.87;4.80;;;13.70;87.40;;;;;;21217042;27;20275;-76
2023/03/18 09:37:42;;;;;;;8.67;3.30;;;14.00;84.30;;;;;;21232669;27;20210;-77
2023/03/18 09:47:55;;;;;;;4.63;2.47;;;14.20;79.90;;;;;;21179669;27;20225;-74
2023/03/18 09:58:02;;;;;;;4.80;2.10;;;14.50;75.10;;;;;;21174611;28;20213;-75
2023/03/18 10:08:30;;;;;;;5.17;2.20;;;14.80;71.10;;;;;;21173410;28;20229;-77
2023/03/18 10:18:42;;;;;;;3.50;2.37;;;15.00;70.40;;;;;;21172976;28;20209;-72
2023/03/18 10:28:50;;;;;;;5.87;2.07;;;15.20;70.00;;;;;;21093344;28;20277;-72
2023/03/18 10:38:53;;;;;;;6.40;2.20;;;15.40;69.90;;;;;;21087056;28;20213;-73
2023/03/18 10:49:00;;;;;;;4.73;2.30;;;15.40;69.50;;;;;;21085768;28;20281;-74
2023/03/18 10:59:17;;;;;;;4.93;2.17;;;15.60;68.80;;;;;;21083301;28;20208;-71
2023/03/18 11:09:35;;;;;;;4.37;2.27;;;15.70;68.50;;;;;;21084194;28;20307;-75
2023/03/18 11:19:40;;;;;;;5.13;2.40;;;15.80;68.00;;;;;;21084234;28;20209;-74
2023/03/18 11:29:48;;;;;;;5.30;2.60;;;16.20;67.10;;;;;;21166344;28;20234;-76
2023/03/18 11:39:50;;;;;;;4.60;1.97;;;16.50;66.60;;;;;;21166368;28;20697;-73
2023/03/18 11:50:02;;;;;;;4.63;2.10;;;16.60;65.90;;;;;;21164965;28;20242;-73
2023/03/18 12:00:17;;;;;;;4.20;2.50;;;17.00;65.10;;;;;;21164513;28;20227;-78
2023/03/18 12:10:40;;;;;;;7.80;1.87;;;17.20;64.60;;;;;;21164130;28;20246;-72
2023/03/18 12:20:52;;;;;;;5.00;1.80;;;17.60;64.00;;;;;;21152801;28;20752;-73
2023/03/18 12:31:38;;;;;;;5.50;2.10;;;18.10;63.30;;;;;;21078476;28;20653;-74
2023/03/18 12:41:53;;;;;;;15.00;2.30;;;18.20;62.70;;;;;;21078451;28;20251;-66
2023/03/18 12:51:59;;;;;;;2.30;1.67;;;18.30;62.50;;;;;;21077908;28;20280;-73
2023/03/18 13:02:27;;;;;;;14.03;9.57;;;18.70;61.10;;;;;;21077442;28;20269;-73
2023/03/18 13:12:36;;;;;;;5.03;2.00;;;18.80;60.70;;;;;;21076131;28;20238;-72
2023/03/18 13:22:41;;;;;;;5.80;2.17;;;19.40;59.40;;;;;;21088291;28;20208;-71
2023/03/18 13:33:04;;;;;;;4.77;1.73;;;19.70;58.70;;;;;;21090767;28;20777;-71
2023/03/18 13:43:13;;;;;;;4.53;1.90;;;20.10;56.90;;;;;;21090384;28;20283;-71
2023/03/18 13:53:28;;;;;;;10.87;1.90;;;20.10;57.40;;;;;;21090166;28;20239;-71
2023/03/18 14:03:41;;;;;;;5.87;1.97;;;20.80;55.90;;;;;;21089177;28;20217;-71
2023/03/18 14:13:47;;;;;;;3.50;1.67;;;21.70;54.10;;;;;;21088240;28;20238;-71
2023/03/18 14:24:11;;;;;;;6.50;1.90;;;22.30;52.70;;;;;;21088169;28;20203;-71
2023/03/18 14:34:16;;;;;;;3.60;1.73;;;;;;;;;;21086674;28;20788;-71
2023/03/18 14:44:25;;;;;;;4.68;1.85;;;25.60;48.50;;;;;;21086386;28;20632;-71
2023/03/18 14:54:30;;;;;;;4.05;2.00;;;;;;;;;;21085497;28;20242;-72
2023/03/18 15:04:32;;;;;;;3.85;1.80;;;26.40;42.50;;;;;;21084599;28;20208;-71
2023/03/18 15:14:33;;;;;;;4.20;1.70;;;23.20;45.70;;;;;;21083364;28;20240;-72
2023/03/18 15:24:36;;;;;;;6.60;2.20;;;22.40;46.60;;;;;;21083107;28;20211;-71
2023/03/18 15:34:41;;;;;;;2.43;1.73;;;21.80;47.80;;;;;;21082027;28;20247;-73
2023/03/18 15:44:44;;;;;;;4.90;1.80;;;21.30;48.40;;;;;;21080936;28;20249;-70
2023/03/18 15:54:47;;;;;;;5.33;2.20;;;21.00;48.80;;;;;;21081228;28;20273;-71
2023/03/18 16:04:49;;;;;;;6.47;2.00;;;20.40;49.40;;;;;;21080386;28;20279;-71
2023/03/18 16:16:35;;;;;;;2.70;1.73;;;19.90;50.20;;;;;;20984529;28;21111;-70
2023/03/18 16:26:37;;;;;;;2.80;1.97;;;19.80;51.20;;;;;;20983872;28;20682;-70
2023/03/18 16:36:39;;;;;;;5.03;2.00;;;19.20;51.70;;;;;;20982743;28;20209;-70
2023/03/18 16:51:45;;;;;;;3.30;1.87;;;18.70;52.10;;;;;;20984288;28;21089;-71
2023/03/18 17:01:47;;;;;;;5.17;2.73;;;18.00;53.60;;;;;;20983369;28;20207;-70
2023/03/18 17:11:51;;;;;;;9.90;2.47;;;17.90;54.30;;;;;;20982875;28;20213;-70
2023/03/18 17:21:53;;;;;;;7.13;3.90;;;17.70;55.00;;;;;;20981625;28;20218;-70
2023/03/18 17:31:55;;;;;;;5.60;2.73;;;17.10;57.40;;;;;;20980878;28;20589;-71
2023/03/18 17:41:57;;;;;;;8.33;4.53;;;16.90;58.20;;;;;;20979875;28;20214;-69
2023/03/18 17:51:59;;;;;;;9.80;4.80;;;16.70;59.20;;;;;;20979581;28;20232;-69
2023/03/18 18:02:00;;;;;;;12.00;5.83;;;16.10;60.80;;;;;;20929561;28;20262;-70
2023/03/18 18:12:03;;;;;;;16.60;7.63;;;16.10;61.60;;;;;;20922908;28;20255;-69
2023/03/18 18:22:15;;;;;;;13.67;6.47;;;15.80;62.70;;;;;;20922414;28;20594;-71
2023/03/18 18:32:17;;;;;;;13.90;7.33;;;15.20;64.60;;;;;;20921343;28;20218;-70
2023/03/18 18:42:19;;;;;;;12.30;6.73;;;14.90;65.60;;;;;;20920315;28;20252;-71
2023/03/18 18:52:21;;;;;;;17.63;8.87;;;14.70;66.90;;;;;;20920295;28;20220;-71
2023/03/18 19:02:28;;;;;;;12.43;7.17;;;14.50;67.60;;;;;;20918670;28;20238;-70
2023/03/18 19:12:30;;;;;;;20.57;9.53;;;14.20;69.30;;;;;;20917215;28;20216;-71
2023/03/18 19:22:32;;;;;;;15.70;9.57;;;14.10;70.00;;;;;;20917456;28;20294;-71
2023/03/18 19:32:34;;;;;;;16.83;10.60;;;13.80;71.20;;;;;;20916666;28;20214;-70
2023/03/18 19:42:36;;;;;;;16.73;10.30;;;13.50;72.90;;;;;;20914333;28;20247;-70
2023/03/18 19:52:37;;;;;;;12.40;7.67;;;13.60;73.90;;;;;;20915392;28;20245;-70
2023/03/18 20:02:39;;;;;;;29.37;9.47;;;13.20;75.30;;;;;;20913879;28;20237;-71
2023/03/18 20:12:49;;;;;;;21.73;10.43;;;13.00;76.20;;;;;;20913298;28;20628;-71
2023/03/18 20:23:00;;;;;;;16.60;8.97;;;12.90;77.80;;;;;;20913012;28;20235;-71
2023/03/18 20:33:04;;;;;;;20.43;12.80;;;12.70;78.80;;;;;;20912671;28;20215;-71
2023/03/18 20:43:08;;;;;;;18.87;9.37;;;12.40;81.00;;;;;;20911884;28;20286;-72
2023/03/18 20:56:57;;;;;;;14.03;8.67;;;12.10;83.20;;;;;;21067959;27;20658;-70
2023/03/18 21:06:59;;;;;;;15.67;8.57;;;12.00;84.80;;;;;;21066049;28;20218;-70
2023/03/18 21:17:01;;;;;;;22.03;8.53;;;11.80;86.10;;;;;;21066268;28;20276;-70
2023/03/18 21:27:03;;;;;;;13.27;7.33;;;11.70;87.20;;;;;;21065612;28;20311;-69
2023/03/18 21:37:14;;;;;;;16.97;7.30;;;11.80;88.00;;;;;;21065164;28;20222;-70
2023/03/18 21:47:21;;;;;;;11.90;7.40;;;11.50;89.20;;;;;;21063880;28;20300;-70
2023/03/18 21:57:24;;;;;;;8.90;6.10;;;11.30;90.30;;;;;;21063424;28;20220;-70
2023/03/18 22:07:28;;;;;;;12.40;6.93;;;11.30;90.50;;;;;;21011316;28;20247;-70
2023/03/18 22:17:32;;;;;;;11.73;7.17;;;11.10;90.70;;;;;;21005602;28;20224;-70
2023/03/18 22:27:34;;;;;;;10.67;6.50;;;11.10;91.10;;;;;;21004883;28;20734;-70
2023/03/18 22:37:36;;;;;;;12.37;6.70;;;11.10;91.20;;;;;;21004889;28;20714;-70
2023/03/18 22:47:37;;;;;;;12.57;7.07;;;11.10;91.50;;;;;;21001802;28;20239;-70
2023/03/18 23:03:59;;;;;;;14.83;7.57;;;11.00;91.90;;;;;;20984334;28;20576;-69
2023/03/18 23:14:02;;;;;;;14.30;8.23;;;10.90;92.00;;;;;;20983385;28;20225;-68
2023/03/18 23:24:04;;;;;;;12.33;6.73;;;11.00;92.10;;;;;;20983028;28;20226;-69
2023/03/18 23:34:06;;;;;;;11.60;6.47;;;10.60;92.60;;;;;;20981888;28;20223;-70
2023/03/18 23:44:08;;;;;;;13.27;7.07;;;10.50;92.80;;;;;;20980918;28;20249;-69
2023/03/18 23:54:09;;;;;;;9.47;6.73;;;10.40;93.00;;;;;;20980322;28;20218;-69
